Time;durP1;ratioP1;P1;durP2;ratioP2;P2;SDS_P1;SDS_P2;PMS_P1;PMS_P2;Temp;Humidity;BMP_temperature;BMP_pressure;BME280_temperature;BME280_humidity;BME280_pressure;Samples;Min_cycle;Max_cycle;Signal;HPM_P1;HPM_P2
2023/08/15 00:00:18;;;;;;;10.85;4.13;;;;;;;;;;5015711;28;20049;-86
2023/08/15 00:02:44;;;;;;;7.95;4.07;;;;;;;;;;5001483;28;20395;-86
2023/08/15 00:05:10;;;;;;;8.45;4.22;;;;;;;;;;5000788;28;20056;-86
2023/08/15 00:07:36;;;;;;;10.27;4.47;;;;;;;;;;5018332;28;20435;-86
2023/08/15 00:10:02;;;;;;;9.90;4.20;;;;;;;;;;5027210;28;20052;-86
2023/08/15 00:12:28;;;;;;;8.85;4.18;;;;;;;;;;5019739;28;20041;-86
2023/08/15 00:14:54;;;;;;;7.85;3.85;;;;;;;;;;5017757;28;20041;-86
2023/08/15 00:17:21;;;;;;;8.48;4.22;;;;;;;;;;5016988;28;20042;-86
2023/08/15 00:19:47;;;;;;;9.10;4.28;;;;;;;;;;5000974;28;20136;-86
2023/08/15 00:22:13;;;;;;;13.85;4.55;;;;;;;;;;5000188;28;20446;-86
2023/08/15 00:24:39;;;;;;;14.55;4.90;;;;;;;;;;5000356;28;20099;-87
2023/08/15 00:27:05;;;;;;;13.18;4.53;;;;;;;;;;5016256;28;20041;-87
2023/08/15 00:29:31;;;;;;;12.10;4.40;;;;;;;;;;5017000;28;20041;-86
2023/08/15 00:31:57;;;;;;;12.07;4.38;;;;;;;;;;4999355;28;20140;-86
2023/08/15 00:34:23;;;;;;;10.60;4.43;;;;;;;;;;5033921;28;20099;-86
2023/08/15 00:36:49;;;;;;;12.68;4.70;;;;;;;;;;4999429;28;20487;-87
2023/08/15 00:39:16;;;;;;;8.57;4.85;;;;;;;;;;4999645;28;20071;-87
2023/08/15 00:41:42;;;;;;;10.75;4.90;;;;;;;;;;5015965;28;20041;-87
2023/08/15 00:44:08;;;;;;;14.93;5.05;;;;;;;;;;5000157;28;20464;-87
2023/08/15 00:46:34;;;;;;;17.25;5.57;;;;;;;;;;5015311;28;20037;-88
2023/08/15 00:49:00;;;;;;;10.95;5.57;;;;;;;;;;5014748;28;20068;-88
2023/08/15 00:51:27;;;;;;;12.02;5.20;;;;;;;;;;4999704;28;20045;-87
2023/08/15 00:53:54;;;;;;;11.10;5.20;;;;;;;;;;5034206;28;20044;-87
2023/08/15 00:56:21;;;;;;;9.50;4.90;;;;;;;;;;4999480;28;20049;-87
2023/08/15 00:58:47;;;;;;;14.18;5.15;;;;;;;;;;4999539;28;20083;-87
2023/08/15 01:01:15;;;;;;;13.13;5.13;;;;;;;;;;4999770;28;20041;-87
2023/08/15 01:03:42;;;;;;;10.27;5.05;;;;;;;;;;5031700;28;20049;-87
2023/08/15 01:06:08;;;;;;;12.40;5.30;;;;;;;;;;5010452;28;20494;-87
2023/08/15 01:08:34;;;;;;;12.88;5.10;;;;;;;;;;5016568;28;20046;-87
2023/08/15 01:11:01;;;;;;;13.63;5.78;;;;;;;;;;5033220;28;20068;-88
2023/08/15 01:13:30;;;;;;;9.38;5.10;;;;;;;;;;4999883;28;20128;-87
2023/08/15 01:15:56;;;;;;;12.95;5.18;;;;;;;;;;4999236;28;20449;-87
2023/08/15 01:18:23;;;;;;;9.95;5.15;;;;;;;;;;5016225;28;20045;-87
2023/08/15 01:20:50;;;;;;;16.45;5.55;;;;;;;;;;5016163;28;20183;-87
2023/08/15 01:23:16;;;;;;;10.23;5.70;;;;;;;;;;5000329;28;20049;-88
2023/08/15 01:25:43;;;;;;;12.70;5.95;;;;;;;;;;5016245;28;20095;-87
2023/08/15 01:28:12;;;;;;;12.15;5.65;;;;;;;;;;5017103;28;20049;-87
2023/08/15 01:30:40;;;;;;;15.60;5.18;;;;;;;;;;5015683;28;20050;-87
2023/08/15 01:33:10;;;;;;;13.32;5.80;;;;;;;;;;5015616;28;20508;-87
2023/08/15 01:35:42;;;;;;;10.60;5.60;;;;;;;;;;4988261;28;20045;-87
2023/08/15 01:38:13;;;;;;;10.13;5.15;;;;;;;;;;5015777;28;20049;-87
2023/08/15 01:40:41;;;;;;;11.52;5.45;;;;;;;;;;4982088;28;20095;-87
2023/08/15 01:43:08;;;;;;;15.80;5.30;;;;;;;;;;5015641;28;20398;-87
2023/08/15 01:45:34;;;;;;;11.32;5.10;;;;;;;;;;4998948;28;20117;-88
2023/08/15 01:48:00;;;;;;;13.15;5.30;;;;;;;;;;5016043;28;20049;-87
2023/08/15 01:50:27;;;;;;;12.73;5.22;;;;;;;;;;5014627;28;20124;-87
2023/08/15 01:52:53;;;;;;;15.35;5.75;;;;;;;;;;4999548;28;20042;-88
2023/08/15 01:55:19;;;;;;;17.95;5.55;;;;;;;;;;5015477;28;20049;-87
2023/08/15 01:57:45;;;;;;;13.02;5.40;;;;;;;;;;5015103;28;20052;-88
2023/08/15 02:00:12;;;;;;;14.55;5.10;;;;;;;;;;5014496;28;20045;-88
2023/08/15 02:02:38;;;;;;;12.00;5.53;;;;;;;;;;4998664;28;20045;-85
2023/08/15 02:05:04;;;;;;;15.60;5.68;;;;;;;;;;5004111;28;20053;-85
2023/08/15 02:07:30;;;;;;;15.10;5.70;;;;;;;;;;5013696;28;20499;-86
2023/08/15 02:09:56;;;;;;;11.95;6.15;;;;;;;;;;4983094;28;20446;-87
2023/08/15 02:12:23;;;;;;;13.77;6.13;;;;;;;;;;5013705;28;20041;-86
2023/08/15 02:14:49;;;;;;;12.45;5.35;;;;;;;;;;4998269;28;20060;-86
2023/08/15 02:17:15;;;;;;;10.88;5.20;;;;;;;;;;4998863;28;20041;-86
2023/08/15 02:19:41;;;;;;;11.93;5.82;;;;;;;;;;5000724;28;20045;-86
2023/08/15 02:22:07;;;;;;;10.23;5.75;;;;;;;;;;5002333;28;20038;-87
2023/08/15 02:24:33;;;;;;;9.35;5.13;;;;;;;;;;5002388;28;20456;-88
2023/08/15 02:27:00;;;;;;;13.40;5.70;;;;;;;;;;5000882;28;20052;-87
2023/08/15 02:29:27;;;;;;;16.10;5.63;;;;;;;;;;5001295;28;20406;-87
2023/08/15 02:31:53;;;;;;;10.45;5.20;;;;;;;;;;5001718;28;20053;-87
2023/08/15 02:34:19;;;;;;;14.65;5.90;;;;;;;;;;5001829;28;20046;-87
2023/08/15 02:36:49;;;;;;;8.90;5.38;;;;;;;;;;5001615;28;20056;-87
2023/08/15 02:39:18;;;;;;;12.52;5.70;;;;;;;;;;5003045;28;20133;-87
2023/08/15 02:41:44;;;;;;;14.90;5.72;;;;;;;;;;5002637;28;20091;-87
2023/08/15 02:44:10;;;;;;;11.77;6.10;;;;;;;;;;5018169;28;20056;-86
2023/08/15 02:46:36;;;;;;;15.25;6.03;;;;;;;;;;5018470;28;20509;-87
2023/08/15 02:49:03;;;;;;;12.07;5.88;;;;;;;;;;5002500;28;20045;-87
2023/08/15 02:51:29;;;;;;;11.52;6.07;;;;;;;;;;5018408;28;20049;-87
2023/08/15 02:53:55;;;;;;;14.57;6.43;;;;;;;;;;5001892;28;20043;-87
2023/08/15 02:56:21;;;;;;;12.40;6.00;;;;;;;;;;5001215;28;20068;-87
2023/08/15 02:58:47;;;;;;;12.07;6.68;;;;;;;;;;5018820;28;20064;-87
2023/08/15 03:01:13;;;;;;;16.13;6.43;;;;;;;;;;5001602;28;20390;-86
2023/08/15 03:03:39;;;;;;;13.23;6.88;;;;;;;;;;5001875;28;20063;-87
2023/08/15 03:06:06;;;;;;;11.40;7.00;;;;;;;;;;5017925;28;20137;-86
2023/08/15 03:08:32;;;;;;;11.68;6.75;;;;;;;;;;5002507;28;20390;-86
2023/08/15 03:10:58;;;;;;;15.15;7.35;;;;;;;;;;5017548;28;20045;-86
2023/08/15 03:13:25;;;;;;;13.20;7.57;;;;;;;;;;5001482;28;20033;-85
2023/08/15 03:15:52;;;;;;;12.40;7.10;;;;;;;;;;5017595;28;20422;-85
2023/08/15 03:18:19;;;;;;;12.85;6.97;;;;;;;;;;5002466;28;20095;-87
2023/08/15 03:20:45;;;;;;;12.55;7.70;;;;;;;;;;5004761;28;20041;-86
2023/08/15 03:23:11;;;;;;;12.90;7.72;;;;;;;;;;5008797;28;20080;-85
2023/08/15 03:25:37;;;;;;;12.05;7.95;;;;;;;;;;5021229;28;20446;-85
2023/08/15 03:28:03;;;;;;;13.48;7.50;;;;;;;;;;5017457;28;20548;-86
2023/08/15 03:30:29;;;;;;;14.27;8.48;;;;;;;;;;5000808;28;20060;-87
2023/08/15 03:32:55;;;;;;;16.90;8.45;;;;;;;;;;5017777;28;20037;-87
2023/08/15 03:35:21;;;;;;;12.13;8.23;;;;;;;;;;5001036;28;20125;-86
2023/08/15 03:37:47;;;;;;;11.50;7.57;;;;;;;;;;5001142;28;20506;-87
2023/08/15 03:40:14;;;;;;;16.13;7.85;;;;;;;;;;5017713;28;20037;-86
2023/08/15 03:42:40;;;;;;;11.70;8.15;;;;;;;;;;5017436;28;20124;-86
2023/08/15 03:45:06;;;;;;;12.43;8.40;;;;;;;;;;5016888;28;20041;-87
2023/08/15 03:47:32;;;;;;;15.45;8.52;;;;;;;;;;5000339;28;20382;-87
2023/08/15 03:49:59;;;;;;;13.13;8.15;;;;;;;;;;5014934;28;20050;-85
2023/08/15 03:52:25;;;;;;;11.68;8.55;;;;;;;;;;5000103;28;20038;-87
2023/08/15 03:54:51;;;;;;;13.40;8.40;;;;;;;;;;4999925;28;20402;-86
2023/08/15 03:57:17;;;;;;;13.52;8.55;;;;;;;;;;5000608;28;20041;-86
2023/08/15 03:59:43;;;;;;;15.30;9.60;;;;;;;;;;5000767;28;20049;-87
2023/08/15 04:02:09;;;;;;;14.43;9.68;;;;;;;;;;5000410;28;20174;-86
2023/08/15 04:04:36;;;;;;;15.38;9.40;;;;;;;;;;5017410;28;20052;-87
2023/08/15 04:07:03;;;;;;;14.25;9.15;;;;;;;;;;5000544;28;20105;-86
2023/08/15 04:09:29;;;;;;;16.05;10.15;;;;;;;;;;5015828;28;20477;-86
2023/08/15 04:11:55;;;;;;;16.70;10.35;;;;;;;;;;5013617;28;20049;-86
2023/08/15 04:14:21;;;;;;;13.63;10.23;;;;;;;;;;5000729;28;20053;-86
2023/08/15 04:16:48;;;;;;;15.68;10.80;;;;;;;;;;5000254;28;20045;-87
2023/08/15 04:19:14;;;;;;;22.90;10.25;;;;;;;;;;5016693;28;20085;-87
2023/08/15 04:21:40;;;;;;;17.20;11.32;;;;;;;;;;4999812;28;20492;-87
2023/08/15 04:24:06;;;;;;;16.02;10.18;;;;;;;;;;5034018;28;20049;-87
2023/08/15 04:26:32;;;;;;;15.23;10.30;;;;;;;;;;5000114;28;20044;-85
2023/08/15 04:28:58;;;;;;;16.23;10.50;;;;;;;;;;5017250;28;20049;-87
2023/08/15 04:31:24;;;;;;;22.45;10.80;;;;;;;;;;5015129;28;20129;-86
2023/08/15 04:33:50;;;;;;;15.57;10.73;;;;;;;;;;4998487;28;20058;-86
2023/08/15 04:36:17;;;;;;;16.20;10.45;;;;;;;;;;5033309;28;20107;-85
2023/08/15 04:38:43;;;;;;;15.65;10.52;;;;;;;;;;5016384;28;20138;-86
2023/08/15 04:41:09;;;;;;;14.60;10.93;;;;;;;;;;4999517;28;20494;-86
2023/08/15 04:43:35;;;;;;;18.30;10.50;;;;;;;;;;4999584;28;20045;-86
2023/08/15 04:46:01;;;;;;;14.20;10.18;;;;;;;;;;5015660;28;20394;-87
2023/08/15 04:48:27;;;;;;;17.40;10.30;;;;;;;;;;5000413;28;20045;-87
2023/08/15 04:50:53;;;;;;;16.45;10.10;;;;;;;;;;5014991;28;20092;-86
2023/08/15 04:53:20;;;;;;;17.10;10.80;;;;;;;;;;4999620;28;20084;-86
2023/08/15 04:55:46;;;;;;;22.25;10.68;;;;;;;;;;5015524;28;20087;-87
2023/08/15 04:58:12;;;;;;;15.15;10.13;;;;;;;;;;5032821;28;20121;-87
2023/08/15 05:00:38;;;;;;;15.88;10.00;;;;;;;;;;4997032;28;20037;-87
2023/08/15 05:03:04;;;;;;;16.95;10.30;;;;;;;;;;4999425;28;20126;-86
2023/08/15 05:05:30;;;;;;;14.75;9.80;;;;;;;;;;5014993;28;20082;-88
2023/08/15 05:07:56;;;;;;;17.63;10.40;;;;;;;;;;4999591;28;20053;-86
2023/08/15 05:10:22;;;;;;;14.60;9.60;;;;;;;;;;4996866;28;20045;-87
2023/08/15 05:12:48;;;;;;;13.63;9.68;;;;;;;;;;5015999;28;20042;-87
2023/08/15 05:15:15;;;;;;;14.07;10.15;;;;;;;;;;5032359;28;20391;-86
2023/08/15 05:17:41;;;;;;;12.38;9.98;;;;;;;;;;5015732;28;20405;-86
2023/08/15 05:20:07;;;;;;;12.13;9.40;;;;;;;;;;4999510;28;20096;-86
2023/08/15 05:22:33;;;;;;;13.60;9.20;;;;;;;;;;5000032;28;20041;-87
2023/08/15 05:25:00;;;;;;;13.48;9.20;;;;;;;;;;4995335;28;20513;-84
2023/08/15 05:27:26;;;;;;;15.43;9.13;;;;;;;;;;4998482;28;20037;-83
2023/08/15 05:29:53;;;;;;;13.32;8.70;;;;;;;;;;4997750;28;20042;-83
2023/08/15 05:32:19;;;;;;;15.05;9.20;;;;;;;;;;5032597;28;20045;-84
2023/08/15 05:34:45;;;;;;;13.70;9.23;;;;;;;;;;5033044;28;20393;-83
2023/08/15 05:37:11;;;;;;;15.55;8.45;;;;;;;;;;5015060;28;20559;-83
2023/08/15 05:39:37;;;;;;;12.85;8.60;;;;;;;;;;4998961;28;20050;-84
2023/08/15 05:42:03;;;;;;;14.18;8.40;;;;;;;;;;5014374;28;20128;-84
2023/08/15 05:44:29;;;;;;;16.33;8.43;;;;;;;;;;4997818;28;20057;-84
2023/08/15 05:46:55;;;;;;;14.25;8.13;;;;;;;;;;5014604;28;20045;-84
2023/08/15 05:49:21;;;;;;;12.00;8.10;;;;;;;;;;5015060;28;20046;-84
2023/08/15 05:51:47;;;;;;;12.95;8.80;;;;;;;;;;5014776;28;20041;-84
2023/08/15 05:54:13;;;;;;;12.90;8.55;;;;;;;;;;5033840;28;20081;-75
2023/08/15 05:56:40;;;;;;;13.30;8.38;;;;;;;;;;5035907;28;20046;-76
2023/08/15 05:59:06;;;;;;;15.73;8.57;;;;;;;;;;5036369;28;20511;-76
2023/08/15 06:01:32;;;;;;;12.52;8.15;;;;;;;;;;5034710;28;20045;-76
2023/08/15 06:03:58;;;;;;;13.13;8.30;;;;;;;;;;5034315;28;20059;-76
2023/08/15 06:06:25;;;;;;;12.55;8.07;;;;;;;;;;5020661;28;20050;-76
2023/08/15 06:08:51;;;;;;;11.63;7.93;;;;;;;;;;5034864;28;20049;-76
2023/08/15 06:11:17;;;;;;;15.80;7.45;;;;;;;;;;5034182;28;20080;-76
2023/08/15 06:13:43;;;;;;;13.45;7.57;;;;;;;;;;5018029;28;20054;-76
2023/08/15 06:16:09;;;;;;;15.55;7.75;;;;;;;;;;5017860;28;20429;-76
2023/08/15 06:18:35;;;;;;;12.70;7.22;;;;;;;;;;5033856;28;20045;-77
2023/08/15 06:21:01;;;;;;;13.48;7.85;;;;;;;;;;5034550;28;20050;-76
2023/08/15 06:23:27;;;;;;;11.48;7.40;;;;;;;;;;5035772;28;20041;-75
2023/08/15 06:25:53;;;;;;;16.92;7.55;;;;;;;;;;5035118;28;20383;-76
2023/08/15 06:28:20;;;;;;;12.55;7.07;;;;;;;;;;5035137;28;20041;-75
2023/08/15 06:30:46;;;;;;;16.50;7.35;;;;;;;;;;5015359;28;20466;-76
2023/08/15 06:33:13;;;;;;;13.93;7.40;;;;;;;;;;5033199;28;20058;-75
2023/08/15 06:35:39;;;;;;;13.27;7.25;;;;;;;;;;5034864;28;20440;-75
2023/08/15 06:38:05;;;;;;;12.35;6.70;;;;;;;;;;5034626;28;20045;-75
2023/08/15 06:40:32;;;;;;;13.20;6.60;;;;;;;;;;5034394;28;20041;-76
2023/08/15 06:42:58;;;;;;;11.93;6.30;;;;;;;;;;5034534;28;20041;-75
2023/08/15 06:45:24;;;;;;;13.70;6.78;;;;;;;;;;5016255;28;20077;-75
2023/08/15 06:47:50;;;;;;;13.63;6.63;;;;;;;;;;5034376;28;20048;-76
2023/08/15 06:50:16;;;;;;;13.10;6.72;;;;;;;;;;5032961;28;20453;-75
2023/08/15 06:52:42;;;;;;;12.27;6.45;;;;;;;;;;5034255;28;20080;-76
2023/08/15 06:55:09;;;;;;;13.27;6.68;;;;;;;;;;5033584;28;20049;-76
2023/08/15 06:57:35;;;;;;;10.55;7.07;;;;;;;;;;5034569;28;20041;-77
2023/08/15 07:00:02;;;;;;;10.18;6.68;;;;;;;;;;5033593;28;20048;-77
2023/08/15 07:02:28;;;;;;;14.60;6.93;;;;;;;;;;5033132;28;20370;-76
2023/08/15 07:04:54;;;;;;;15.90;7.00;;;;;;;;;;5015017;28;20053;-73
2023/08/15 07:07:20;;;;;;;11.70;7.18;;;;;;;;;;5033740;28;20045;-73
2023/08/15 07:09:47;;;;;;;13.50;6.53;;;;;;;;;;5033904;28;20081;-73
2023/08/15 07:12:17;;;;;;;14.32;7.22;;;;;;;;;;5034248;28;20456;-74
2023/08/15 07:14:44;;;;;;;12.32;7.30;;;;;;;;;;5034062;28;20171;-74
2023/08/15 07:17:11;;;;;;;14.60;6.30;;;;;;;;;;5033985;28;20060;-73
2023/08/15 07:19:37;;;;;;;13.98;6.65;;;;;;;;;;5033942;28;20126;-74
2023/08/15 07:22:04;;;;;;;13.85;6.63;;;;;;;;;;5033897;28;20063;-73
2023/08/15 07:24:30;;;;;;;9.32;5.72;;;;;;;;;;5033958;28;20049;-73
2023/08/15 07:26:56;;;;;;;12.32;6.25;;;;;;;;;;5033636;28;20075;-73
2023/08/15 07:29:22;;;;;;;13.07;5.72;;;;;;;;;;5033110;28;20513;-73
2023/08/15 07:31:48;;;;;;;11.10;5.15;;;;;;;;;;5032886;28;20367;-73
2023/08/15 07:34:14;;;;;;;12.30;5.47;;;;;;;;;;5033952;28;20152;-73
2023/08/15 07:36:40;;;;;;;13.93;4.70;;;;;;;;;;5033633;28;20056;-73
2023/08/15 07:39:06;;;;;;;10.73;4.80;;;;;;;;;;5016057;28;20084;-77
2023/08/15 07:41:32;;;;;;;12.88;4.50;;;;;;;;;;5031413;28;20049;-74
2023/08/15 07:43:59;;;;;;;11.25;4.30;;;;;;;;;;5013592;28;20045;-74
2023/08/15 07:46:25;;;;;;;10.57;4.50;;;;;;;;;;5014250;28;20057;-74
2023/08/15 07:48:51;;;;;;;11.98;4.28;;;;;;;;;;5015458;28;20044;-75
2023/08/15 07:51:17;;;;;;;10.63;4.50;;;;;;;;;;5032797;28;20048;-73
2023/08/15 07:53:43;;;;;;;9.60;4.15;;;;;;;;;;5014460;28;20084;-74
2023/08/15 07:56:09;;;;;;;8.50;3.80;;;;;;;;;;5032621;28;20045;-74
2023/08/15 07:58:36;;;;;;;9.13;3.80;;;;;;;;;;5033467;28;20049;-74
2023/08/15 08:01:02;;;;;;;9.07;3.70;;;;;;;;;;5033874;28;20124;-83
2023/08/15 08:05:57;;;;;;;11.80;3.67;;;;;;;;;;4961030;28;20154;-88
2023/08/15 08:08:23;;;;;;;10.52;3.40;;;;;;;;;;4936002;29;20057;-89
2023/08/15 08:10:49;;;;;;;12.73;3.33;;;;;;;;;;4977951;28;20043;-88
2023/08/15 08:13:17;;;;;;;8.18;2.80;;;;;;;;;;4990231;28;20077;-89
2023/08/15 08:15:44;;;;;;;11.10;2.80;;;;;;;;;;4973254;28;20137;-89
2023/08/15 08:18:10;;;;;;;7.70;2.50;;;;;;;;;;4958413;28;20082;-90
2023/08/15 08:20:39;;;;;;;7.70;2.88;;;;;;;;;;4939218;28;20483;-88
2023/08/15 08:23:06;;;;;;;10.75;2.80;;;;;;;;;;4938231;28;20050;-89
2023/08/15 08:25:32;;;;;;;9.48;2.67;;;;;;;;;;4936424;28;20046;-89
2023/08/15 08:27:58;;;;;;;7.95;2.55;;;;;;;;;;4952169;28;20039;-91
2023/08/15 08:30:29;;;;;;;12.70;3.03;;;;;;;;;;4951563;28;20093;-89
2023/08/15 08:32:55;;;;;;;11.02;2.70;;;;;;;;;;4938359;28;20082;-89
2023/08/15 08:35:27;;;;;;;10.68;3.05;;;;;;;;;;4953824;28;20105;-88
2023/08/15 08:37:54;;;;;;;8.15;2.88;;;;;;;;;;4936298;28;20042;-87
2023/08/15 08:40:20;;;;;;;9.45;2.70;;;;;;;;;;4939115;28;20141;-88
2023/08/15 08:42:46;;;;;;;7.45;2.35;;;;;;;;;;4951966;28;20476;-87
2023/08/15 11:18:33;;;;;;;5.20;1.60;;;;;;;;;;5005754;23;20068;-88
2023/08/15 11:21:02;;;;;;;4.93;1.60;;;;;;;;;;4978702;28;20057;-91
2023/08/15 11:23:38;;;;;;;6.43;1.83;;;;;;;;;;4997372;28;20041;-90
2023/08/15 11:26:06;;;;;;;5.95;1.60;;;;;;;;;;5006998;28;20089;-87
2023/08/15 11:28:32;;;;;;;5.75;1.90;;;;;;;;;;4989522;28;20045;-88
2023/08/15 11:30:59;;;;;;;4.93;1.90;;;;;;;;;;4980077;28;20049;-88
2023/08/15 11:33:28;;;;;;;4.15;1.83;;;;;;;;;;5012877;28;20045;-87
2023/08/15 11:35:56;;;;;;;8.93;1.85;;;;;;;;;;5012484;28;20153;-88
2023/08/15 11:38:23;;;;;;;7.68;1.70;;;;;;;;;;4997927;28;20049;-89
2023/08/15 11:41:13;;;;;;;6.43;1.90;;;;;;;;;;5009762;28;20041;-88
2023/08/15 16:21:42;;;;;;;6.05;1.92;;;;;;;;;;5057425;22;20060;-80
2023/08/15 16:24:09;;;;;;;5.90;1.85;;;;;;;;;;5040637;28;20075;-80
2023/08/15 16:26:35;;;;;;;5.32;1.80;;;;;;;;;;5055729;28;20056;-81
2023/08/15 16:29:01;;;;;;;6.80;1.85;;;;;;;;;;5057871;28;20052;-81
2023/08/15 16:31:27;;;;;;;4.90;1.83;;;;;;;;;;5060121;28;20041;-81
2023/08/15 16:33:53;;;;;;;4.75;1.65;;;;;;;;;;5053131;28;20044;-80
2023/08/15 16:36:19;;;;;;;4.10;1.60;;;;;;;;;;5038093;28;20139;-81
2023/08/15 16:38:45;;;;;;;5.68;1.80;;;;;;;;;;5021894;28;20051;-79
2023/08/15 16:41:11;;;;;;;4.47;1.80;;;;;;;;;;5038123;28;20128;-81
2023/08/15 16:43:37;;;;;;;5.47;1.60;;;;;;;;;;5022616;28;20048;-80
2023/08/15 16:46:05;;;;;;;4.93;1.70;;;;;;;;;;5043099;28;20091;-80
2023/08/15 16:48:33;;;;;;;4.18;1.50;;;;;;;;;;5056859;28;20198;-80
2023/08/15 16:50:59;;;;;;;4.35;1.52;;;;;;;;;;5055632;28;20055;-80
2023/08/15 16:53:25;;;;;;;4.18;1.40;;;;;;;;;;5052258;28;20037;-78
2023/08/15 16:55:51;;;;;;;3.63;1.48;;;;;;;;;;5052014;28;20128;-78
2023/08/15 16:58:18;;;;;;;3.90;1.27;;;;;;;;;;5045092;28;20146;-77
2023/08/15 17:00:44;;;;;;;2.95;1.30;;;;;;;;;;5044763;28;20045;-79
2023/08/15 17:03:10;;;;;;;4.05;1.50;;;;;;;;;;5032420;28;20116;-78
2023/08/15 17:05:36;;;;;;;4.00;1.60;;;;;;;;;;5018386;28;20103;-80
2023/08/15 17:08:02;;;;;;;4.18;2.03;;;;;;;;;;5055825;28;20056;-80
2023/08/15 17:10:31;;;;;;;3.80;1.40;;;;;;;;;;5035919;28;20044;-80
2023/08/15 17:12:57;;;;;;;5.00;1.50;;;;;;;;;;5052057;28;20048;-80
2023/08/15 17:15:23;;;;;;;6.90;1.77;;;;;;;;;;5018777;28;20076;-82
2023/08/15 17:17:49;;;;;;;3.63;1.33;;;;;;;;;;5052466;28;20052;-81
2023/08/15 17:20:15;;;;;;;4.78;1.45;;;;;;;;;;5052817;28;20045;-81
2023/08/15 17:22:41;;;;;;;2.88;1.23;;;;;;;;;;5023770;28;20391;-80
2023/08/15 17:25:08;;;;;;;2.45;1.20;;;;;;;;;;4996244;28;20045;-80
2023/08/15 17:27:34;;;;;;;2.95;1.20;;;;;;;;;;5033055;28;20038;-81
2023/08/15 17:30:00;;;;;;;3.80;1.70;;;;;;;;;;5010041;28;20081;-79
2023/08/15 17:32:26;;;;;;;5.90;1.77;;;;;;;;;;4994136;28;20097;-80
2023/08/15 17:34:53;;;;;;;3.85;1.65;;;;;;;;;;5013142;28;20046;-80
2023/08/15 17:37:19;;;;;;;5.63;2.10;;;;;;;;;;5014443;28;20049;-80
2023/08/15 17:39:45;;;;;;;4.43;1.92;;;;;;;;;;5034665;28;20050;-83
2023/08/15 17:42:11;;;;;;;4.53;1.50;;;;;;;;;;5017347;28;20072;-82
2023/08/15 17:44:39;;;;;;;3.83;1.58;;;;;;;;;;5036444;28;20056;-81
2023/08/15 17:47:05;;;;;;;4.47;1.60;;;;;;;;;;5036798;28;20105;-81
2023/08/15 17:49:31;;;;;;;2.45;1.45;;;;;;;;;;5021382;28;20110;-81
2023/08/15 17:51:57;;;;;;;5.78;1.60;;;;;;;;;;5042119;28;20045;-79
2023/08/15 17:54:24;;;;;;;4.75;1.60;;;;;;;;;;5035941;28;20471;-79
2023/08/15 17:56:50;;;;;;;3.60;1.50;;;;;;;;;;5036258;28;20059;-80
2023/08/15 17:59:16;;;;;;;4.75;1.50;;;;;;;;;;5037243;28;20045;-80
2023/08/15 18:01:42;;;;;;;6.15;1.70;;;;;;;;;;5018374;28;20049;-80
2023/08/15 18:04:08;;;;;;;5.55;1.65;;;;;;;;;;5022983;28;20038;-81
2023/08/15 18:06:34;;;;;;;3.00;1.50;;;;;;;;;;5036611;28;20556;-82
2023/08/15 18:09:01;;;;;;;2.97;1.52;;;;;;;;;;5024294;28;21419;-83
2023/08/15 18:11:27;;;;;;;4.22;1.40;;;;;;;;;;5008949;28;20046;-81
2023/08/15 18:13:54;;;;;;;6.30;1.60;;;;;;;;;;5040804;28;20091;-79
2023/08/15 18:16:20;;;;;;;7.57;1.77;;;;;;;;;;5017481;28;20049;-79
2023/08/15 18:18:46;;;;;;;4.85;1.88;;;;;;;;;;5018152;28;20057;-80
2023/08/15 18:21:12;;;;;;;4.45;1.50;;;;;;;;;;5036546;28;20045;-80
2023/08/15 18:23:38;;;;;;;4.85;1.42;;;;;;;;;;5055038;28;20041;-83
2023/08/15 18:26:04;;;;;;;4.68;1.65;;;;;;;;;;5056401;28;20142;-82
2023/08/15 18:28:30;;;;;;;5.07;1.50;;;;;;;;;;5038682;28;20404;-82
2023/08/15 18:30:56;;;;;;;4.40;1.67;;;;;;;;;;5057740;28;20110;-82
2023/08/15 18:33:22;;;;;;;7.32;1.80;;;;;;;;;;5038211;28;20041;-80
2023/08/15 18:35:51;;;;;;;6.07;1.73;;;;;;;;;;5054398;28;20045;-80
2023/08/15 18:38:17;;;;;;;6.60;1.98;;;;;;;;;;5055165;28;20111;-80
2023/08/15 18:40:43;;;;;;;7.57;2.13;;;;;;;;;;5055414;28;20051;-79
2023/08/15 18:43:09;;;;;;;7.32;2.30;;;;;;;;;;5057148;28;20440;-79
2023/08/15 18:45:43;;;;;;;6.70;2.10;;;;;;;;;;5036695;28;20102;-78
2023/08/15 18:48:10;;;;;;;6.63;2.08;;;;;;;;;;5053797;28;20095;-80
2023/08/15 18:50:36;;;;;;;7.97;2.40;;;;;;;;;;5018553;28;20088;-81
2023/08/15 18:53:02;;;;;;;6.60;2.10;;;;;;;;;;5051639;28;20045;-78
2023/08/15 18:55:28;;;;;;;5.97;2.20;;;;;;;;;;5052164;28;20115;-80
2023/08/15 18:57:54;;;;;;;6.10;2.30;;;;;;;;;;5034103;28;20084;-80
2023/08/15 19:00:20;;;;;;;9.65;2.50;;;;;;;;;;5033174;28;20052;-80
2023/08/15 19:02:46;;;;;;;8.90;2.28;;;;;;;;;;5051239;28;20405;-79
2023/08/15 19:05:13;;;;;;;7.07;2.25;;;;;;;;;;5039977;28;20045;-78
2023/08/15 19:07:39;;;;;;;8.63;2.20;;;;;;;;;;5042750;28;20056;-79
2023/08/15 19:10:05;;;;;;;6.30;2.10;;;;;;;;;;5044095;28;20049;-79
2023/08/15 19:12:33;;;;;;;9.23;2.42;;;;;;;;;;5032269;28;20462;-79
2023/08/15 19:15:01;;;;;;;9.40;3.28;;;;;;;;;;5013961;28;20389;-79
2023/08/15 19:17:27;;;;;;;6.70;2.13;;;;;;;;;;5038328;28;20037;-80
2023/08/15 19:19:53;;;;;;;6.90;2.67;;;;;;;;;;5024971;28;20045;-79
2023/08/15 19:22:19;;;;;;;7.03;2.40;;;;;;;;;;5034970;28;20095;-81
2023/08/15 19:24:45;;;;;;;8.85;2.60;;;;;;;;;;5034201;28;20495;-80
2023/08/15 19:27:11;;;;;;;6.80;2.50;;;;;;;;;;5051890;28;20122;-81
2023/08/15 19:29:37;;;;;;;7.32;2.53;;;;;;;;;;5032341;28;20049;-80
2023/08/15 19:32:03;;;;;;;6.75;2.53;;;;;;;;;;5032916;28;20044;-78
2023/08/15 19:34:29;;;;;;;7.72;2.72;;;;;;;;;;5032970;28;20049;-79
2023/08/15 19:36:55;;;;;;;7.53;2.70;;;;;;;;;;5031977;28;20049;-80
2023/08/15 19:39:21;;;;;;;7.47;2.75;;;;;;;;;;5033047;28;20057;-80
2023/08/15 19:41:49;;;;;;;7.15;2.50;;;;;;;;;;5050757;28;20049;-80
2023/08/15 19:44:18;;;;;;;10.93;2.75;;;;;;;;;;5033100;28;20052;-80
2023/08/15 19:46:46;;;;;;;8.05;2.75;;;;;;;;;;5044811;28;20496;-80
2023/08/15 19:49:12;;;;;;;6.32;2.63;;;;;;;;;;5012359;28;20126;-80
2023/08/15 19:51:38;;;;;;;8.98;2.67;;;;;;;;;;5052070;28;20452;-80
2023/08/15 19:54:04;;;;;;;7.20;2.50;;;;;;;;;;5017850;28;20183;-80
2023/08/15 19:56:30;;;;;;;8.48;3.25;;;;;;;;;;5033914;28;20052;-80
2023/08/15 19:58:56;;;;;;;7.65;3.00;;;;;;;;;;5034361;28;20091;-80
2023/08/15 20:01:22;;;;;;;9.63;4.10;;;;;;;;;;5051381;28;20404;-80
2023/08/15 20:03:48;;;;;;;9.40;4.32;;;;;;;;;;5017236;28;20135;-80
2023/08/15 20:06:14;;;;;;;10.32;3.60;;;;;;;;;;5069021;28;20169;-80
2023/08/15 20:08:40;;;;;;;6.82;2.92;;;;;;;;;;5033052;28;20041;-80
2023/08/15 20:11:07;;;;;;;8.98;3.28;;;;;;;;;;5016959;28;20053;-79
2023/08/15 20:13:33;;;;;;;8.07;2.80;;;;;;;;;;5031212;28;20543;-79
2023/08/15 20:15:59;;;;;;;8.60;2.97;;;;;;;;;;5031274;28;20060;-79
2023/08/15 20:18:25;;;;;;;6.55;3.03;;;;;;;;;;5032185;28;20124;-78
2023/08/15 20:20:51;;;;;;;7.68;3.00;;;;;;;;;;5011354;28;20131;-77
2023/08/15 20:23:17;;;;;;;6.75;2.90;;;;;;;;;;5031967;28;20053;-78
2023/08/15 20:25:43;;;;;;;6.40;3.28;;;;;;;;;;5014054;28;20053;-78
2023/08/15 20:28:11;;;;;;;8.35;3.30;;;;;;;;;;5032030;28;20040;-78
2023/08/15 20:30:37;;;;;;;5.63;3.05;;;;;;;;;;5033716;28;20448;-78
2023/08/15 20:33:03;;;;;;;11.25;3.80;;;;;;;;;;5051424;28;20086;-78
2023/08/15 20:35:29;;;;;;;9.93;3.33;;;;;;;;;;5016906;28;20080;-78
2023/08/15 20:37:55;;;;;;;8.40;3.42;;;;;;;;;;5051559;28;20045;-78
2023/08/15 20:40:21;;;;;;;8.35;3.50;;;;;;;;;;5033438;28;20049;-78
2023/08/15 20:42:47;;;;;;;8.35;3.60;;;;;;;;;;5051157;28;20129;-77
2023/08/15 20:45:13;;;;;;;7.30;3.10;;;;;;;;;;5033469;28;20052;-78
2023/08/15 20:47:40;;;;;;;8.35;3.20;;;;;;;;;;5033187;28;20063;-79
2023/08/15 20:50:06;;;;;;;7.47;3.40;;;;;;;;;;5033036;28;20365;-78
2023/08/15 20:52:32;;;;;;;7.10;3.35;;;;;;;;;;5032922;28;20055;-78
2023/08/15 20:54:59;;;;;;;8.93;3.30;;;;;;;;;;5049711;28;20075;-78
2023/08/15 20:57:25;;;;;;;7.45;3.50;;;;;;;;;;5051051;28;20043;-78
2023/08/15 20:59:51;;;;;;;8.07;3.92;;;;;;;;;;5050865;28;20044;-78
2023/08/15 21:02:17;;;;;;;8.18;3.55;;;;;;;;;;5048481;28;20067;-78
2023/08/15 21:04:43;;;;;;;10.43;3.67;;;;;;;;;;5030424;28;20112;-79
2023/08/15 21:07:09;;;;;;;8.88;3.80;;;;;;;;;;5032638;28;20040;-78
2023/08/15 21:09:35;;;;;;;9.05;3.63;;;;;;;;;;5049286;28;20084;-80
2023/08/15 21:12:01;;;;;;;6.70;3.50;;;;;;;;;;5012027;28;20100;-80
2023/08/15 21:14:27;;;;;;;9.85;3.75;;;;;;;;;;5012066;28;20076;-79
2023/08/15 21:16:53;;;;;;;8.75;3.72;;;;;;;;;;5030454;28;20274;-79
2023/08/15 21:19:19;;;;;;;9.68;4.00;;;;;;;;;;5030600;28;20071;-79
2023/08/15 21:21:46;;;;;;;10.05;3.90;;;;;;;;;;5021129;28;20049;-79
2023/08/15 21:24:12;;;;;;;8.57;3.75;;;;;;;;;;5020478;28;20370;-79
2023/08/15 21:26:38;;;;;;;10.27;4.07;;;;;;;;;;5020199;28;20045;-79
2023/08/15 21:29:04;;;;;;;8.18;4.60;;;;;;;;;;5021201;28;20411;-79
2023/08/15 21:31:31;;;;;;;8.18;4.32;;;;;;;;;;5018884;28;20111;-78
2023/08/15 21:33:57;;;;;;;11.30;4.28;;;;;;;;;;5038981;28;20033;-79
2023/08/15 21:36:23;;;;;;;8.25;4.72;;;;;;;;;;5038287;28;20410;-79
2023/08/15 21:38:49;;;;;;;11.18;4.53;;;;;;;;;;5021266;28;20045;-78
2023/08/15 21:41:16;;;;;;;9.88;4.43;;;;;;;;;;5020928;28;20114;-79
2023/08/15 21:43:43;;;;;;;10.75;4.75;;;;;;;;;;5037791;28;20046;-79